sensor_id;sensor_type;location;lat;lon;timestamp;pressure;altitude;pressure_sealevel;temperature;humidity
69909;BME280;57190;47.918;8.112;2023-02-10T00:01:23;92284.56;;;-4.27;72.64
69909;BME280;57190;47.918;8.112;2023-02-10T00:03:49;92289.34;;;-4.22;72.86
69909;BME280;57190;47.918;8.112;2023-02-10T00:06:17;92283.03;;;-4.19;72.04
69909;BME280;57190;47.918;8.112;2023-02-10T00:08:46;92285.50;;;-4.18;71.77
69909;BME280;57190;47.918;8.112;2023-02-10T00:11:13;92293.53;;;-4.11;72.19
69909;BME280;57190;47.918;8.112;2023-02-10T00:13:41;92292.16;;;-4.05;71.76
69909;BME280;57190;47.918;8.112;2023-02-10T00:16:09;92290.91;;;-4.01;72.05
69909;BME280;57190;47.918;8.112;2023-02-10T00:18:36;92296.41;;;-4.04;72.69
69909;BME280;57190;47.918;8.112;2023-02-10T00:23:35;92305.34;;;-4.07;72.69
69909;BME280;57190;47.918;8.112;2023-02-10T00:26:05;92302.59;;;-4.05;72.27
69909;BME280;57190;47.918;8.112;2023-02-10T00:28:32;92296.84;;;-4.09;73.10
69909;BME280;57190;47.918;8.112;2023-02-10T00:30:59;92299.31;;;-4.07;72.95
69909;BME280;57190;47.918;8.112;2023-02-10T00:33:24;92300.13;;;-4.07;73.63
69909;BME280;57190;47.918;8.112;2023-02-10T00:35:50;92291.09;;;-4.13;72.73
69909;BME280;57190;47.918;8.112;2023-02-10T00:38:16;92294.97;;;-4.17;73.39
69909;BME280;57190;47.918;8.112;2023-02-10T00:40:43;92294.00;;;-4.16;73.70
69909;BME280;57190;47.918;8.112;2023-02-10T00:43:08;92291.25;;;-4.14;72.99
69909;BME280;57190;47.918;8.112;2023-02-10T00:45:34;92289.59;;;-4.15;73.21
69909;BME280;57190;47.918;8.112;2023-02-10T00:48:00;92297.03;;;-4.20;73.46
69909;BME280;57190;47.918;8.112;2023-02-10T00:50:26;92297.31;;;-4.23;73.37
69909;BME280;57190;47.918;8.112;2023-02-10T00:52:51;92289.25;;;-4.30;73.79
69909;BME280;57190;47.918;8.112;2023-02-10T00:55:17;92287.59;;;-4.31;73.33
69909;BME280;57190;47.918;8.112;2023-02-10T00:57:43;92286.09;;;-4.34;73.26
69909;BME280;57190;47.918;8.112;2023-02-10T01:00:09;92293.91;;;-4.34;73.51
69909;BME280;57190;47.918;8.112;2023-02-10T01:02:35;92299.03;;;-4.42;74.57
69909;BME280;57190;47.918;8.112;2023-02-10T01:05:01;92291.78;;;-4.48;74.97
69909;BME280;57190;47.918;8.112;2023-02-10T01:07:28;92289.16;;;-4.48;73.84
69909;BME280;57190;47.918;8.112;2023-02-10T01:09:55;92289.59;;;-4.53;73.84
69909;BME280;57190;47.918;8.112;2023-02-10T01:12:20;92291.41;;;-4.63;73.63
69909;BME280;57190;47.918;8.112;2023-02-10T01:14:46;92298.09;;;-4.61;74.00
69909;BME280;57190;47.918;8.112;2023-02-10T01:17:12;92300.81;;;-4.52;74.32
69909;BME280;57190;47.918;8.112;2023-02-10T01:19:38;92309.47;;;-4.52;74.31
69909;BME280;57190;47.918;8.112;2023-02-10T01:22:04;92300.59;;;-4.59;73.89
69909;BME280;57190;47.918;8.112;2023-02-10T01:24:29;92301.53;;;-4.60;73.96
69909;BME280;57190;47.918;8.112;2023-02-10T01:26:55;92302.66;;;-4.63;73.58
69909;BME280;57190;47.918;8.112;2023-02-10T01:29:21;92301.13;;;-4.55;73.78
69909;BME280;57190;47.918;8.112;2023-02-10T01:31:47;92302.09;;;-4.56;73.72
69909;BME280;57190;47.918;8.112;2023-02-10T01:34:13;92307.44;;;-4.58;74.14
69909;BME280;57190;47.918;8.112;2023-02-10T01:36:38;92305.91;;;-4.61;73.52
69909;BME280;57190;47.918;8.112;2023-02-10T01:39:04;92308.13;;;-4.66;73.83
69909;BME280;57190;47.918;8.112;2023-02-10T01:41:30;92304.56;;;-4.65;74.35
69909;BME280;57190;47.918;8.112;2023-02-10T01:44:04;92300.59;;;-4.69;74.41
69909;BME280;57190;47.918;8.112;2023-02-10T01:46:32;92295.53;;;-4.70;73.92
69909;BME280;57190;47.918;8.112;2023-02-10T01:49:04;92297.03;;;-4.68;74.14
69909;BME280;57190;47.918;8.112;2023-02-10T01:51:36;92287.84;;;-4.62;74.03
69909;BME280;57190;47.918;8.112;2023-02-10T01:54:04;92306.63;;;-4.68;74.34
69909;BME280;57190;47.918;8.112;2023-02-10T01:56:32;92308.81;;;-4.74;74.21
69909;BME280;57190;47.918;8.112;2023-02-10T01:58:58;92312.41;;;-4.75;74.15
69909;BME280;57190;47.918;8.112;2023-02-10T02:01:24;92316.50;;;-4.72;74.28
69909;BME280;57190;47.918;8.112;2023-02-10T02:03:49;92315.28;;;-4.78;74.20
69909;BME280;57190;47.918;8.112;2023-02-10T02:06:16;92314.88;;;-4.73;74.31
69909;BME280;57190;47.918;8.112;2023-02-10T02:08:43;92309.13;;;-4.77;74.18
69909;BME280;57190;47.918;8.112;2023-02-10T02:11:12;92310.34;;;-4.81;74.12
69909;BME280;57190;47.918;8.112;2023-02-10T02:16:57;92313.09;;;-4.82;74.79
69909;BME280;57190;47.918;8.112;2023-02-10T02:37:29;92301.31;;;-5.16;75.65
69909;BME280;57190;47.918;8.112;2023-02-10T02:39:56;92299.00;;;-5.09;74.95
69909;BME280;57190;47.918;8.112;2023-02-10T02:42:27;92300.22;;;-5.03;75.62
69909;BME280;57190;47.918;8.112;2023-02-10T02:45:15;92301.19;;;-5.05;75.21
69909;BME280;57190;47.918;8.112;2023-02-10T02:48:23;92293.25;;;-5.03;74.85
69909;BME280;57190;47.918;8.112;2023-02-10T02:54:10;92289.13;;;-5.06;75.22
69909;BME280;57190;47.918;8.112;2023-02-10T02:56:47;92295.56;;;-5.00;74.94
69909;BME280;57190;47.918;8.112;2023-02-10T02:59:37;92293.78;;;-4.99;75.26
69909;BME280;57190;47.918;8.112;2023-02-10T03:02:09;92296.41;;;-5.09;75.28
69909;BME280;57190;47.918;8.112;2023-02-10T03:04:40;92296.13;;;-5.16;75.44
69909;BME280;57190;47.918;8.112;2023-02-10T03:07:06;92302.84;;;-5.13;75.71
69909;BME280;57190;47.918;8.112;2023-02-10T03:09:33;92300.91;;;-5.11;76.03
69909;BME280;57190;47.918;8.112;2023-02-10T03:11:59;92299.00;;;-5.09;75.79
69909;BME280;57190;47.918;8.112;2023-02-10T03:14:24;92306.66;;;-5.08;75.83
69909;BME280;57190;47.918;8.112;2023-02-10T03:16:51;92314.75;;;-5.11;75.44
69909;BME280;57190;47.918;8.112;2023-02-10T03:19:17;92320.38;;;-5.15;76.18
69909;BME280;57190;47.918;8.112;2023-02-10T03:21:42;92320.63;;;-5.18;75.46
69909;BME280;57190;47.918;8.112;2023-02-10T03:24:08;92324.19;;;-5.19;75.39
69909;BME280;57190;47.918;8.112;2023-02-10T03:26:35;92313.53;;;-5.16;76.02
69909;BME280;57190;47.918;8.112;2023-02-10T03:29:02;92313.94;;;-5.21;75.80
69909;BME280;57190;47.918;8.112;2023-02-10T03:31:28;92315.03;;;-5.24;75.73
69909;BME280;57190;47.918;8.112;2023-02-10T03:33:54;92313.25;;;-5.33;75.73
69909;BME280;57190;47.918;8.112;2023-02-10T03:36:20;92309.00;;;-5.44;76.14
69909;BME280;57190;47.918;8.112;2023-02-10T03:38:45;92315.66;;;-5.71;74.20
69909;BME280;57190;47.918;8.112;2023-02-10T03:41:12;92313.00;;;-5.90;74.07
69909;BME280;57190;47.918;8.112;2023-02-10T03:43:39;92318.91;;;-5.98;75.50
69909;BME280;57190;47.918;8.112;2023-02-10T03:46:05;92317.81;;;-6.05;75.80
69909;BME280;57190;47.918;8.112;2023-02-10T03:48:31;92314.22;;;-6.14;75.56
69909;BME280;57190;47.918;8.112;2023-02-10T03:50:58;92320.81;;;-6.10;75.36
69909;BME280;57190;47.918;8.112;2023-02-10T03:53:25;92329.66;;;-6.12;75.33
69909;BME280;57190;47.918;8.112;2023-02-10T03:55:51;92327.91;;;-6.12;74.89
69909;BME280;57190;47.918;8.112;2023-02-10T03:58:17;92335.31;;;-6.07;76.36
69909;BME280;57190;47.918;8.112;2023-02-10T04:00:43;92338.47;;;-6.04;76.00
69909;BME280;57190;47.918;8.112;2023-02-10T04:03:09;92348.16;;;-6.06;74.63
69909;BME280;57190;47.918;8.112;2023-02-10T04:05:34;92354.03;;;-6.13;75.06
69909;BME280;57190;47.918;8.112;2023-02-10T04:08:00;92353.75;;;-6.10;75.38
69909;BME280;57190;47.918;8.112;2023-02-10T04:10:27;92351.31;;;-6.02;75.23
69909;BME280;57190;47.918;8.112;2023-02-10T04:12:53;92362.53;;;-5.92;75.74
69909;BME280;57190;47.918;8.112;2023-02-10T04:15:19;92361.19;;;-5.86;75.62
69909;BME280;57190;47.918;8.112;2023-02-10T04:17:44;92363.94;;;-5.88;75.34
69909;BME280;57190;47.918;8.112;2023-02-10T04:20:11;92370.88;;;-5.88;76.20
69909;BME280;57190;47.918;8.112;2023-02-10T04:22:37;92368.16;;;-5.87;75.59
69909;BME280;57190;47.918;8.112;2023-02-10T04:25:04;92357.63;;;-5.85;75.49
69909;BME280;57190;47.918;8.112;2023-02-10T04:27:30;92362.44;;;-5.80;75.64
69909;BME280;57190;47.918;8.112;2023-02-10T04:29:55;92356.00;;;-5.76;76.00
69909;BME280;57190;47.918;8.112;2023-02-10T04:32:21;92359.44;;;-5.76;76.44
69909;BME280;57190;47.918;8.112;2023-02-10T04:34:48;92361.97;;;-5.95;75.34
69909;BME280;57190;47.918;8.112;2023-02-10T04:37:14;92360.25;;;-6.26;74.63
69909;BME280;57190;47.918;8.112;2023-02-10T04:39:40;92361.28;;;-6.38;75.23
69909;BME280;57190;47.918;8.112;2023-02-10T04:42:06;92353.88;;;-6.43;74.65
69909;BME280;57190;47.918;8.112;2023-02-10T04:44:32;92361.78;;;-6.44;75.06
69909;BME280;57190;47.918;8.112;2023-02-10T04:46:58;92363.72;;;-6.46;75.32
69909;BME280;57190;47.918;8.112;2023-02-10T04:49:25;92358.38;;;-6.45;75.11
69909;BME280;57190;47.918;8.112;2023-02-10T04:51:51;92359.25;;;-6.35;75.15
69909;BME280;57190;47.918;8.112;2023-02-10T04:54:17;92364.25;;;-6.22;75.08
69909;BME280;57190;47.918;8.112;2023-02-10T04:56:42;92356.72;;;-6.15;76.31
69909;BME280;57190;47.918;8.112;2023-02-10T04:59:08;92360.03;;;-6.13;75.13
69909;BME280;57190;47.918;8.112;2023-02-10T05:01:34;92367.56;;;-6.10;76.25
69909;BME280;57190;47.918;8.112;2023-02-10T05:04:01;92359.78;;;-6.10;75.31
69909;BME280;57190;47.918;8.112;2023-02-10T05:06:26;92363.97;;;-6.19;74.47
69909;BME280;57190;47.918;8.112;2023-02-10T05:08:52;92366.69;;;-6.20;74.47
69909;BME280;57190;47.918;8.112;2023-02-10T05:11:18;92355.47;;;-6.21;74.89
69909;BME280;57190;47.918;8.112;2023-02-10T05:13:45;92357.25;;;-6.21;74.73
69909;BME280;57190;47.918;8.112;2023-02-10T05:16:12;92359.03;;;-6.22;75.71
69909;BME280;57190;47.918;8.112;2023-02-10T05:18:38;92365.78;;;-6.09;75.93
69909;BME280;57190;47.918;8.112;2023-02-10T05:21:08;92369.38;;;-6.01;75.10
69909;BME280;57190;47.918;8.112;2023-02-10T05:23:35;92370.34;;;-5.92;76.37
69909;BME280;57190;47.918;8.112;2023-02-10T05:26:02;92370.88;;;-5.88;75.85
69909;BME280;57190;47.918;8.112;2023-02-10T05:28:28;92372.78;;;-5.90;75.68
69909;BME280;57190;47.918;8.112;2023-02-10T05:30:54;92373.88;;;-5.93;76.38
69909;BME280;57190;47.918;8.112;2023-02-10T05:33:20;92366.91;;;-5.92;76.94
69909;BME280;57190;47.918;8.112;2023-02-10T05:35:46;92368.16;;;-5.87;76.09
69909;BME280;57190;47.918;8.112;2023-02-10T05:38:12;92371.31;;;-5.83;76.22
69909;BME280;57190;47.918;8.112;2023-02-10T05:40:38;92362.84;;;-5.85;76.17
69909;BME280;57190;47.918;8.112;2023-02-10T05:43:04;92368.59;;;-5.81;76.08
69909;BME280;57190;47.918;8.112;2023-02-10T05:45:30;92362.56;;;-5.82;75.87
69909;BME280;57190;47.918;8.112;2023-02-10T05:47:56;92371.97;;;-5.91;75.39
69909;BME280;57190;47.918;8.112;2023-02-10T05:50:22;92369.78;;;-6.05;75.05
69909;BME280;57190;47.918;8.112;2023-02-10T05:52:47;92365.75;;;-6.19;75.39
69909;BME280;57190;47.918;8.112;2023-02-10T05:55:13;92371.53;;;-6.37;75.67
69909;BME280;57190;47.918;8.112;2023-02-10T05:57:39;92364.75;;;-6.49;74.44
69909;BME280;57190;47.918;8.112;2023-02-10T06:00:06;92370.16;;;-6.62;74.91
69909;BME280;57190;47.918;8.112;2023-02-10T06:02:32;92382.94;;;-6.70;74.31
69909;BME280;57190;47.918;8.112;2023-02-10T06:04:58;92388.59;;;-6.65;75.01
69909;BME280;57190;47.918;8.112;2023-02-10T06:07:23;92390.16;;;-6.53;75.73
69909;BME280;57190;47.918;8.112;2023-02-10T06:09:49;92385.34;;;-6.36;75.97
69909;BME280;57190;47.918;8.112;2023-02-10T06:12:14;92390.13;;;-6.32;74.92
69909;BME280;57190;47.918;8.112;2023-02-10T06:14:40;92386.03;;;-6.34;75.07
69909;BME280;57190;47.918;8.112;2023-02-10T06:17:06;92381.78;;;-6.35;75.69
69909;BME280;57190;47.918;8.112;2023-02-10T06:19:38;92385.22;;;-6.35;74.21
69909;BME280;57190;47.918;8.112;2023-02-10T06:22:04;92389.84;;;-6.38;75.65
69909;BME280;57190;47.918;8.112;2023-02-10T06:24:30;92397.03;;;-6.42;76.03
69909;BME280;57190;47.918;8.112;2023-02-10T06:26:56;92395.81;;;-6.48;75.44
69909;BME280;57190;47.918;8.112;2023-02-10T06:29:21;92399.88;;;-6.55;73.77
69909;BME280;57190;47.918;8.112;2023-02-10T06:31:47;92405.88;;;-6.54;75.43
69909;BME280;57190;47.918;8.112;2023-02-10T06:34:12;92401.81;;;-6.47;75.44
69909;BME280;57190;47.918;8.112;2023-02-10T06:36:38;92402.44;;;-6.34;75.06
69909;BME280;57190;47.918;8.112;2023-02-10T06:39:04;92401.56;;;-6.23;75.43
69909;BME280;57190;47.918;8.112;2023-02-10T06:41:30;92411.25;;;-6.25;74.82
69909;BME280;57190;47.918;8.112;2023-02-10T06:43:55;92414.47;;;-6.33;75.92
69909;BME280;57190;47.918;8.112;2023-02-10T06:46:21;92406.00;;;-6.35;74.29
69909;BME280;57190;47.918;8.112;2023-02-10T06:48:46;92411.13;;;-6.44;75.12
69909;BME280;57190;47.918;8.112;2023-02-10T06:51:12;92406.06;;;-6.46;75.26
69909;BME280;57190;47.918;8.112;2023-02-10T06:53:38;92411.75;;;-6.31;74.79
69909;BME280;57190;47.918;8.112;2023-02-10T06:56:04;92409.63;;;-6.16;75.55
69909;BME280;57190;47.918;8.112;2023-02-10T06:58:29;92409.00;;;-5.98;75.29
69909;BME280;57190;47.918;8.112;2023-02-10T07:00:55;92413.41;;;-5.89;75.11
69909;BME280;57190;47.918;8.112;2023-02-10T07:03:20;92411.69;;;-5.79;75.12
69909;BME280;57190;47.918;8.112;2023-02-10T07:05:46;92414.16;;;-5.77;74.68
69909;BME280;57190;47.918;8.112;2023-02-10T07:08:11;92420.59;;;-5.72;74.83
69909;BME280;57190;47.918;8.112;2023-02-10T07:10:37;92418.16;;;-5.73;74.60
69909;BME280;57190;47.918;8.112;2023-02-10T07:13:03;92423.22;;;-5.62;74.67
69909;BME280;57190;47.918;8.112;2023-02-10T07:15:28;92423.28;;;-5.52;74.31
69909;BME280;57190;47.918;8.112;2023-02-10T07:17:54;92424.94;;;-5.41;75.02
69909;BME280;57190;47.918;8.112;2023-02-10T07:20:20;92429.22;;;-5.30;74.18
69909;BME280;57190;47.918;8.112;2023-02-10T07:22:45;92439.50;;;-5.19;74.67
69909;BME280;57190;47.918;8.112;2023-02-10T07:25:11;92428.00;;;-5.07;73.94
69909;BME280;57190;47.918;8.112;2023-02-10T07:27:36;92431.72;;;-4.99;74.12
69909;BME280;57190;47.918;8.112;2023-02-10T07:30:02;92436.25;;;-5.01;73.31
69909;BME280;57190;47.918;8.112;2023-02-10T07:32:27;92441.19;;;-4.98;72.88
69909;BME280;57190;47.918;8.112;2023-02-10T07:34:53;92436.00;;;-4.88;72.55
69909;BME280;57190;47.918;8.112;2023-02-10T07:37:18;92439.97;;;-4.84;72.60
69909;BME280;57190;47.918;8.112;2023-02-10T07:39:44;92442.31;;;-4.71;71.64
69909;BME280;57190;47.918;8.112;2023-02-10T07:42:09;92441.53;;;-3.95;70.76
69909;BME280;57190;47.918;8.112;2023-02-10T07:44:35;92437.25;;;-2.93;67.09
69909;BME280;57190;47.918;8.112;2023-02-10T07:47:00;92436.44;;;-2.75;65.48
69909;BME280;57190;47.918;8.112;2023-02-10T07:49:26;92442.03;;;-2.88;64.69
69909;BME280;57190;47.918;8.112;2023-02-10T07:51:54;92443.50;;;-1.34;63.08
69909;BME280;57190;47.918;8.112;2023-02-10T07:54:20;92436.81;;;3.04;53.89
69909;BME280;57190;47.918;8.112;2023-02-10T07:56:46;92435.53;;;4.81;50.94
69909;BME280;57190;47.918;8.112;2023-02-10T07:59:12;92427.88;;;5.28;52.04
69909;BME280;57190;47.918;8.112;2023-02-10T08:01:37;92434.56;;;8.45;46.07
69909;BME280;57190;47.918;8.112;2023-02-10T08:04:08;92426.53;;;10.14;41.83
69909;BME280;57190;47.918;8.112;2023-02-10T08:06:33;92436.97;;;10.76;37.48
69909;BME280;57190;47.918;8.112;2023-02-10T08:08:59;92434.50;;;10.02;38.90
69909;BME280;57190;47.918;8.112;2023-02-10T08:11:24;92442.56;;;10.87;36.61
69909;BME280;57190;47.918;8.112;2023-02-10T08:13:50;92446.63;;;10.89;34.76
69909;BME280;57190;47.918;8.112;2023-02-10T08:16:15;92447.47;;;12.54;32.67
69909;BME280;57190;47.918;8.112;2023-02-10T08:18:41;92446.97;;;14.60;30.19
69909;BME280;57190;47.918;8.112;2023-02-10T08:21:08;92446.41;;;15.51;27.32
69909;BME280;57190;47.918;8.112;2023-02-10T08:23:34;92441.09;;;16.73;26.70
69909;BME280;57190;47.918;8.112;2023-02-10T08:26:04;92442.50;;;18.75;24.42
69909;BME280;57190;47.918;8.112;2023-02-10T08:28:35;92444.34;;;19.30;23.54
69909;BME280;57190;47.918;8.112;2023-02-10T08:31:02;92437.31;;;18.18;23.77
69909;BME280;57190;47.918;8.112;2023-02-10T08:33:28;92449.00;;;18.03;23.79
69909;BME280;57190;47.918;8.112;2023-02-10T08:35:53;92442.88;;;18.48;23.32
69909;BME280;57190;47.918;8.112;2023-02-10T08:38:19;92443.72;;;20.02;23.11
69909;BME280;57190;47.918;8.112;2023-02-10T08:40:45;92446.50;;;21.13;21.27
69909;BME280;57190;47.918;8.112;2023-02-10T08:43:10;92445.13;;;21.16;20.46
69909;BME280;57190;47.918;8.112;2023-02-10T08:45:38;92446.41;;;21.76;19.76
69909;BME280;57190;47.918;8.112;2023-02-10T08:48:05;92446.56;;;21.98;19.62
69909;BME280;57190;47.918;8.112;2023-02-10T08:50:30;92446.25;;;21.67;20.04
69909;BME280;57190;47.918;8.112;2023-02-10T08:52:56;92444.03;;;22.63;19.00
69909;BME280;57190;47.918;8.112;2023-02-10T08:55:22;92444.53;;;23.30;18.52
69909;BME280;57190;47.918;8.112;2023-02-10T08:57:48;92449.97;;;25.68;17.33
69909;BME280;57190;47.918;8.112;2023-02-10T09:00:14;92438.97;;;26.03;16.66
69909;BME280;57190;47.918;8.112;2023-02-10T09:02:40;92445.88;;;26.18;16.07
69909;BME280;57190;47.918;8.112;2023-02-10T09:05:05;92446.81;;;26.31;16.55
69909;BME280;57190;47.918;8.112;2023-02-10T09:07:31;92451.31;;;24.63;16.36
69909;BME280;57190;47.918;8.112;2023-02-10T09:09:56;92438.25;;;22.92;18.95
69909;BME280;57190;47.918;8.112;2023-02-10T09:12:21;92441.22;;;23.55;17.55
69909;BME280;57190;47.918;8.112;2023-02-10T09:14:47;92440.59;;;22.85;17.73
69909;BME280;57190;47.918;8.112;2023-02-10T09:17:13;92439.25;;;21.28;18.82
69909;BME280;57190;47.918;8.112;2023-02-10T09:19:38;92443.59;;;19.54;21.00
69909;BME280;57190;47.918;8.112;2023-02-10T09:22:05;92442.31;;;21.59;19.29
69909;BME280;57190;47.918;8.112;2023-02-10T09:24:31;92435.81;;;22.35;18.86
69909;BME280;57190;47.918;8.112;2023-02-10T09:26:57;92438.22;;;23.20;18.73
69909;BME280;57190;47.918;8.112;2023-02-10T09:29:23;92446.88;;;23.82;18.02
69909;BME280;57190;47.918;8.112;2023-02-10T09:31:48;92439.28;;;24.64;17.21
69909;BME280;57190;47.918;8.112;2023-02-10T09:34:14;92431.94;;;25.76;16.06
69909;BME280;57190;47.918;8.112;2023-02-10T09:36:39;92436.56;;;26.19;16.33
69909;BME280;57190;47.918;8.112;2023-02-10T09:39:05;92438.38;;;26.53;15.50
69909;BME280;57190;47.918;8.112;2023-02-10T09:41:41;92437.53;;;27.01;15.00
69909;BME280;57190;47.918;8.112;2023-02-10T09:47:14;92444.13;;;17.74;21.83
69909;BME280;57190;47.918;8.112;2023-02-10T09:49:52;92446.47;;;14.19;26.93
69909;BME280;57190;47.918;8.112;2023-02-10T09:55:29;92450.47;;;20.34;20.95
69909;BME280;57190;47.918;8.112;2023-02-10T09:58:06;92451.47;;;19.55;21.91
69909;BME280;57190;47.918;8.112;2023-02-10T10:00:42;92446.44;;;20.99;20.51
69909;BME280;57190;47.918;8.112;2023-02-10T10:03:21;92444.78;;;21.75;20.07
69909;BME280;57190;47.918;8.112;2023-02-10T10:05:58;92439.72;;;22.01;19.61
69909;BME280;57190;47.918;8.112;2023-02-10T10:11:43;92440.56;;;21.30;20.17
69909;BME280;57190;47.918;8.112;2023-02-10T10:14:25;92438.72;;;20.87;20.48
69909;BME280;57190;47.918;8.112;2023-02-10T10:22:42;92451.47;;;12.11;29.70
69909;BME280;57190;47.918;8.112;2023-02-10T10:25:36;92445.84;;;11.36;31.17
69909;BME280;57190;47.918;8.112;2023-02-10T10:28:45;92445.31;;;10.80;32.11
69909;BME280;57190;47.918;8.112;2023-02-10T10:31:16;92446.38;;;10.79;32.90
69909;BME280;57190;47.918;8.112;2023-02-10T10:36:20;92450.00;;;10.54;31.79
69909;BME280;57190;47.918;8.112;2023-02-10T10:38:50;92453.19;;;10.32;32.41
69909;BME280;57190;47.918;8.112;2023-02-10T10:41:16;92446.28;;;10.25;32.24
69909;BME280;57190;47.918;8.112;2023-02-10T10:43:50;92442.78;;;9.19;32.32
69909;BME280;57190;47.918;8.112;2023-02-10T10:46:33;92445.84;;;9.41;31.14
69909;BME280;57190;47.918;8.112;2023-02-10T10:48:59;92442.94;;;9.24;32.37
69909;BME280;57190;47.918;8.112;2023-02-10T10:51:25;92442.28;;;9.48;33.06
69909;BME280;57190;47.918;8.112;2023-02-10T10:53:54;92435.53;;;9.26;32.09
69909;BME280;57190;47.918;8.112;2023-02-10T10:58:47;92433.78;;;8.70;28.21
69909;BME280;57190;47.918;8.112;2023-02-10T11:01:15;92428.00;;;8.47;27.59
69909;BME280;57190;47.918;8.112;2023-02-10T11:03:41;92427.00;;;8.42;27.86
69909;BME280;57190;47.918;8.112;2023-02-10T11:06:14;92427.13;;;8.22;28.07
69909;BME280;57190;47.918;8.112;2023-02-10T11:08:55;92426.44;;;8.01;27.39
69909;BME280;57190;47.918;8.112;2023-02-10T11:11:38;92426.28;;;7.89;28.40
69909;BME280;57190;47.918;8.112;2023-02-10T11:14:18;92429.59;;;7.84;27.67
69909;BME280;57190;47.918;8.112;2023-02-10T11:16:51;92425.72;;;7.74;27.23
69909;BME280;57190;47.918;8.112;2023-02-10T11:19:23;92424.63;;;7.43;28.13
69909;BME280;57190;47.918;8.112;2023-02-10T11:21:50;92419.31;;;7.43;29.07
69909;BME280;57190;47.918;8.112;2023-02-10T11:24:27;92419.31;;;7.43;28.78
69909;BME280;57190;47.918;8.112;2023-02-10T11:27:02;92418.31;;;7.37;28.73
69909;BME280;57190;47.918;8.112;2023-02-10T11:29:30;92416.28;;;7.39;28.53
69909;BME280;57190;47.918;8.112;2023-02-10T11:31:57;92417.28;;;7.45;28.93
69909;BME280;57190;47.918;8.112;2023-02-10T11:36:56;92422.25;;;7.80;30.09
69909;BME280;57190;47.918;8.112;2023-02-10T11:41:52;92422.28;;;7.66;31.04
69909;BME280;57190;47.918;8.112;2023-02-10T11:44:26;92415.53;;;7.70;31.13
69909;BME280;57190;47.918;8.112;2023-02-10T11:47:04;92422.06;;;7.75;31.54
69909;BME280;57190;47.918;8.112;2023-02-10T11:49:34;92421.34;;;7.54;32.31
69909;BME280;57190;47.918;8.112;2023-02-10T11:52:02;92421.72;;;7.58;34.08
69909;BME280;57190;47.918;8.112;2023-02-10T11:54:29;92413.16;;;7.55;33.98
69909;BME280;57190;47.918;8.112;2023-02-10T12:05:07;92417.31;;;7.31;32.46
69909;BME280;57190;47.918;8.112;2023-02-10T12:07:55;92417.53;;;7.23;34.05
69909;BME280;57190;47.918;8.112;2023-02-10T12:10:39;92421.81;;;7.24;35.01
69909;BME280;57190;47.918;8.112;2023-02-10T12:24:07;92411.69;;;6.60;38.09
69909;BME280;57190;47.918;8.112;2023-02-10T12:35:02;92407.00;;;6.89;38.33
69909;BME280;57190;47.918;8.112;2023-02-10T12:53:19;92395.59;;;6.15;40.65
69909;BME280;57190;47.918;8.112;2023-02-10T12:58:39;92411.06;;;6.11;40.12
69909;BME280;57190;47.918;8.112;2023-02-10T13:01:17;92405.16;;;6.09;39.67
69909;BME280;57190;47.918;8.112;2023-02-10T13:03:47;92412.72;;;6.12;40.56
69909;BME280;57190;47.918;8.112;2023-02-10T13:06:20;92402.72;;;6.14;40.38
69909;BME280;57190;47.918;8.112;2023-02-10T13:11:41;92409.25;;;6.19;41.62
69909;BME280;57190;47.918;8.112;2023-02-10T13:14:19;92407.38;;;5.99;42.13
69909;BME280;57190;47.918;8.112;2023-02-10T13:16:52;92402.66;;;5.94;42.02
69909;BME280;57190;47.918;8.112;2023-02-10T13:25:14;92390.56;;;5.65;42.91
69909;BME280;57190;47.918;8.112;2023-02-10T13:27:46;92391.38;;;5.59;42.96
69909;BME280;57190;47.918;8.112;2023-02-10T13:33:17;92390.69;;;5.43;43.14
69909;BME280;57190;47.918;8.112;2023-02-10T13:35:45;92394.78;;;5.46;43.37
69909;BME280;57190;47.918;8.112;2023-02-10T13:38:17;92394.16;;;5.44;44.30
69909;BME280;57190;47.918;8.112;2023-02-10T13:43:31;92393.91;;;5.32;43.70
69909;BME280;57190;47.918;8.112;2023-02-10T13:45:59;92395.13;;;5.29;43.38
69909;BME280;57190;47.918;8.112;2023-02-10T13:48:30;92389.34;;;5.12;44.43
69909;BME280;57190;47.918;8.112;2023-02-10T13:50:57;92392.53;;;5.01;44.92
69909;BME280;57190;47.918;8.112;2023-02-10T13:58:31;92392.28;;;4.96;45.18
69909;BME280;57190;47.918;8.112;2023-02-10T14:00:58;92400.00;;;4.91;45.37
69909;BME280;57190;47.918;8.112;2023-02-10T14:03:32;92400.78;;;4.84;44.64
69909;BME280;57190;47.918;8.112;2023-02-10T14:06:03;92406.88;;;4.78;44.54
69909;BME280;57190;47.918;8.112;2023-02-10T14:13:35;92402.88;;;4.61;46.45
69909;BME280;57190;47.918;8.112;2023-02-10T14:16:30;92405.69;;;4.59;46.28
69909;BME280;57190;47.918;8.112;2023-02-10T14:19:02;92404.50;;;4.62;45.99
69909;BME280;57190;47.918;8.112;2023-02-10T14:21:41;92405.84;;;4.51;46.10
69909;BME280;57190;47.918;8.112;2023-02-10T14:24:23;92404.91;;;4.37;47.46
69909;BME280;57190;47.918;8.112;2023-02-10T14:26:50;92408.09;;;4.25;47.63
69909;BME280;57190;47.918;8.112;2023-02-10T14:29:17;92415.41;;;4.02;48.38
69909;BME280;57190;47.918;8.112;2023-02-10T14:31:47;92416.03;;;3.82;48.82
69909;BME280;57190;47.918;8.112;2023-02-10T14:36:53;92415.53;;;3.57;49.56
69909;BME280;57190;47.918;8.112;2023-02-10T14:39:23;92416.50;;;3.34;50.52
69909;BME280;57190;47.918;8.112;2023-02-10T14:41:50;92419.44;;;3.24;51.33
69909;BME280;57190;47.918;8.112;2023-02-10T14:47:03;92417.66;;;3.10;51.59
69909;BME280;57190;47.918;8.112;2023-02-10T14:49:29;92428.91;;;3.04;52.81
69909;BME280;57190;47.918;8.112;2023-02-10T14:52:01;92425.91;;;2.92;52.37
69909;BME280;57190;47.918;8.112;2023-02-10T14:54:27;92428.19;;;2.80;52.81
69909;BME280;57190;47.918;8.112;2023-02-10T14:56:57;92436.38;;;2.70;53.07
69909;BME280;57190;47.918;8.112;2023-02-10T14:59:30;92426.03;;;2.69;53.13
69909;BME280;57190;47.918;8.112;2023-02-10T15:02:04;92432.59;;;2.49;53.98
69909;BME280;57190;47.918;8.112;2023-02-10T15:04:30;92425.69;;;2.48;54.69
69909;BME280;57190;47.918;8.112;2023-02-10T15:06:57;92421.91;;;2.51;54.94
69909;BME280;57190;47.918;8.112;2023-02-10T15:09:33;92431.50;;;2.44;55.34
69909;BME280;57190;47.918;8.112;2023-02-10T15:12:05;92432.75;;;2.33;55.06
69909;BME280;57190;47.918;8.112;2023-02-10T15:15:38;92433.22;;;2.22;55.49
69909;BME280;57190;47.918;8.112;2023-02-10T15:17:45;92435.91;;;2.13;55.66